EST,Max TemperatureF,Mean TemperatureF,Min TemperatureF,Max Dew PointF,MeanDew PointF,Min DewpointF,Max Humidity, Mean Humidity, Min Humidity, Max Sea Level PressureIn, Mean Sea Level PressureIn, Min Sea Level PressureIn, Max VisibilityMiles, Mean VisibilityMiles, Min VisibilityMiles, Max Wind SpeedMPH, Mean Wind SpeedMPH, Max Gust SpeedMPH,PrecipitationIn, CloudCover, Events, WindDirDegrees
2013-1-1,68,58,48,53,48,43,86,72,58,30.16,30.05,29.94,10,10,9,12,4,15,0.00,7,,213
2013-1-2,62,56,50,56,51,44,93,82,77,30.15,30.00,29.89,10,9,4,10,5,15,0.01,7,Rain,29
2013-1-3,52,49,46,48,45,41,93,86,77,30.28,30.18,30.10,10,8,5,13,3,16,0.09,7,Rain,61
2013-1-4,53,44,34,41,36,32,100,85,48,30.37,30.31,30.26,10,4,0,10,2,13,0.00,2,Fog,269
2013-1-5,56,42,28,39,29,24,92,62,32,30.42,30.34,30.30,10,10,8,12,1,15,0.00,1,,67
2013-1-6,55,49,43,45,40,36,86,72,54,30.26,30.18,30.11,10,10,10,12,4,15,T,7,Rain,249
2013-1-7,55,45,34,37,33,30,96,68,41,30.40,30.34,30.21,10,10,8,14,4,18,0.00,0,,36
2013-1-8,65,51,37,47,39,33,85,66,52,30.41,30.36,30.32,10,10,10,12,6,16,0.00,5,,55
2013-1-9,72,61,49,56,51,45,93,76,57,30.42,30.38,30.34,10,10,6,9,2,12,0.00,2,,45
2013-1-10,74,62,49,57,52,47,100,83,46,30.46,30.40,30.36,10,7,1,13,4,17,0.03,4,Rain,89
2013-1-11,75,65,54,62,57,53,100,93,60,30.35,30.27,30.17,10,4,0,12,3,16,0.00,6,Fog,117
2013-1-12,80,70,59,62,60,57,100,85,45,30.21,30.16,30.11,10,6,0,12,3,15,0.00,2,Fog,221
2013-1-13,77,65,53,61,58,53,100,86,54,30.19,30.13,30.08,10,5,0,14,3,17,0.00,1,Fog,194
2013-1-14,80,70,59,61,60,58,93,78,54,30.18,30.14,30.09,10,9,4,15,5,18,0.00,1,,198
2013-1-15,78,67,55,60,58,54,97,84,45,30.16,30.10,30.03,10,6,0,16,5,21,0.00,2,Fog,191
2013-1-16,81,72,63,61,60,57,93,71,45,30.04,29.99,29.94,10,10,10,21,7,26,0.00,4,,206
2013-1-17,78,62,46,60,52,37,93,79,54,30.10,29.90,29.69,10,8,2,30,10,38,0.25,6,Rain,229
2013-1-18,55,45,34,38,29,19,85,61,24,30.51,30.39,30.16,10,10,10,21,8,29,0.00,1,,24
2013-1-19,61,46,31,42,33,25,96,66,40,30.51,30.38,30.25,10,10,10,7,1,9,0.00,1,,38
2013-1-20,68,52,36,41,35,27,92,66,22,30.20,30.14,30.05,10,8,2,16,5,22,0.00,0,,256
2013-1-21,66,50,33,37,31,23,100,59,24,30.10,30.05,29.98,10,7,2,18,6,26,0.00,0,,276
2013-1-22,54,45,36,24,20,17,59,39,24,30.28,30.19,30.06,10,10,10,16,7,21,0.00,0,,282
2013-1-23,54,41,28,31,22,14,75,49,30,30.39,30.28,30.17,10,10,8,16,5,24,0.00,0,,262
2013-1-24,65,49,33,42,29,8,77,49,26,30.48,30.22,30.09,10,10,8,21,11,26,0.00,0,,299
2013-1-25,38,33,28,26,16,7,59,48,35,30.49,30.32,30.17,10,10,10,12,4,17,0.00,6,,59
2013-1-26,61,48,35,33,30,24,75,55,31,30.34,30.21,30.12,10,10,10,10,3,14,0.00,2,,62
2013-1-27,52,42,32,32,28,24,82,58,38,30.53,30.47,30.35,10,10,9,14,6,20,0.00,1,,64
2013-1-28,62,51,39,49,38,30,93,74,56,30.47,30.39,30.30,10,9,5,9,3,12,T,5,Rain,68
2013-1-29,78,60,41,63,52,39,100,84,50,30.29,30.21,30.10,10,6,0,14,4,18,0.00,4,Fog,186
2013-1-30,80,66,52,64,61,48,93,77,52,30.08,29.85,29.59,10,9,2,36,15,43,0.45,7,Rain,198
2013-1-31,55,48,41,48,27,18,83,47,24,30.18,29.99,29.71,10,10,10,31,15,41,0.01,1,,269